sensor_id;sensor_type;location;lat;lon;timestamp;pressure;altitude;pressure_sealevel;temperature;humidity
3096;BME280;1558;42.700;23.360;2023-04-06T00:02:17;95036.47;;;0.03;100.00
3096;BME280;1558;42.700;23.360;2023-04-06T00:04:47;95103.09;;;0.45;100.00
3096;BME280;1558;42.700;23.360;2023-04-06T00:07:15;95103.66;;;0.42;100.00
3096;BME280;1558;42.700;23.360;2023-04-06T00:09:43;95070.06;;;0.28;100.00
3096;BME280;1558;42.700;23.360;2023-04-06T00:12:11;95100.19;;;0.47;100.00
3096;BME280;1558;42.700;23.360;2023-04-06T00:14:39;95089.06;;;0.45;100.00
3096;BME280;1558;42.700;23.360;2023-04-06T00:17:08;95076.66;;;0.35;100.00
3096;BME280;1558;42.700;23.360;2023-04-06T00:19:36;95079.50;;;0.44;100.00
3096;BME280;1558;42.700;23.360;2023-04-06T00:22:06;95069.94;;;0.48;100.00
3096;BME280;1558;42.700;23.360;2023-04-06T00:24:34;95078.94;;;0.57;100.00
3096;BME280;1558;42.700;23.360;2023-04-06T00:27:02;95061.16;;;0.52;100.00
3096;BME280;1558;42.700;23.360;2023-04-06T00:29:30;95062.75;;;0.53;100.00
3096;BME280;1558;42.700;23.360;2023-04-06T00:31:58;95074.66;;;0.61;100.00
3096;BME280;1558;42.700;23.360;2023-04-06T00:34:26;95072.22;;;0.64;100.00
3096;BME280;1558;42.700;23.360;2023-04-06T00:36:54;95056.09;;;0.56;100.00
3096;BME280;1558;42.700;23.360;2023-04-06T00:39:24;95061.09;;;0.62;100.00
3096;BME280;1558;42.700;23.360;2023-04-06T00:41:52;95074.84;;;0.69;100.00
3096;BME280;1558;42.700;23.360;2023-04-06T00:44:22;95070.84;;;0.72;100.00
3096;BME280;1558;42.700;23.360;2023-04-06T00:46:50;95084.94;;;0.73;100.00
3096;BME280;1558;42.700;23.360;2023-04-06T00:49:18;95068.22;;;0.72;100.00
3096;BME280;1558;42.700;23.360;2023-04-06T00:51:46;95055.75;;;0.73;100.00
3096;BME280;1558;42.700;23.360;2023-04-06T00:54:15;95030.38;;;0.56;100.00
3096;BME280;1558;42.700;23.360;2023-04-06T00:56:44;95055.72;;;0.78;100.00
3096;BME280;1558;42.700;23.360;2023-04-06T00:59:12;95056.22;;;0.80;100.00
3096;BME280;1558;42.700;23.360;2023-04-06T01:01:40;95055.72;;;0.78;100.00
3096;BME280;1558;42.700;23.360;2023-04-06T01:04:09;95056.69;;;0.87;100.00
3096;BME280;1558;42.700;23.360;2023-04-06T01:06:37;95049.75;;;0.91;100.00
3096;BME280;1558;42.700;23.360;2023-04-06T01:09:05;95058.00;;;0.89;100.00
3096;BME280;1558;42.700;23.360;2023-04-06T01:11:35;94891.38;;;-0.15;100.00
3096;BME280;1558;42.700;23.360;2023-04-06T01:14:05;95048.22;;;0.85;100.00
3096;BME280;1558;42.700;23.360;2023-04-06T01:16:33;95048.22;;;0.85;100.00
3096;BME280;1558;42.700;23.360;2023-04-06T01:19:07;95020.25;;;0.63;100.00
3096;BME280;1558;42.700;23.360;2023-04-06T01:21:36;95042.41;;;0.83;100.00
3096;BME280;1558;42.700;23.360;2023-04-06T01:24:06;95042.63;;;0.86;100.00
3096;BME280;1558;42.700;23.360;2023-04-06T01:26:35;95042.91;;;0.85;100.00
3096;BME280;1558;42.700;23.360;2023-04-06T01:29:03;95040.78;;;0.87;100.00
3096;BME280;1558;42.700;23.360;2023-04-06T01:31:32;95039.72;;;0.88;100.00
3096;BME280;1558;42.700;23.360;2023-04-06T01:34:00;95031.75;;;0.88;100.00
3096;BME280;1558;42.700;23.360;2023-04-06T01:36:28;95029.63;;;0.90;100.00
3096;BME280;1558;42.700;23.360;2023-04-06T01:38:56;95020.00;;;0.94;100.00
3096;BME280;1558;42.700;23.360;2023-04-06T01:41:26;95007.41;;;0.81;100.00
3096;BME280;1558;42.700;23.360;2023-04-06T01:43:54;95021.13;;;0.88;100.00
3096;BME280;1558;42.700;23.360;2023-04-06T01:46:22;95026.41;;;0.93;100.00
3096;BME280;1558;42.700;23.360;2023-04-06T01:48:50;95023.75;;;0.93;100.00
3096;BME280;1558;42.700;23.360;2023-04-06T01:51:19;95018.75;;;0.86;100.00
3096;BME280;1558;42.700;23.360;2023-04-06T01:53:47;95013.44;;;0.86;100.00
3096;BME280;1558;42.700;23.360;2023-04-06T01:56:16;95021.91;;;0.88;100.00
3096;BME280;1558;42.700;23.360;2023-04-06T01:58:45;95013.69;;;0.90;100.00
3096;BME280;1558;42.700;23.360;2023-04-06T02:01:13;95008.94;;;0.87;100.00
3096;BME280;1558;42.700;23.360;2023-04-06T02:03:42;95010.53;;;0.88;100.00
3096;BME280;1558;42.700;23.360;2023-04-06T02:06:10;94998.34;;;0.82;100.00
3096;BME280;1558;42.700;23.360;2023-04-06T02:08:38;94999.94;;;0.83;100.00
3096;BME280;1558;42.700;23.360;2023-04-06T02:11:06;95015.84;;;0.88;100.00
3096;BME280;1558;42.700;23.360;2023-04-06T02:13:34;95003.06;;;0.90;100.00
3096;BME280;1558;42.700;23.360;2023-04-06T02:16:04;95006.22;;;0.92;100.00
3096;BME280;1558;42.700;23.360;2023-04-06T02:18:32;94989.28;;;0.88;100.00
3096;BME280;1558;42.700;23.360;2023-04-06T02:21:00;94988.75;;;0.86;100.00
3096;BME280;1558;42.700;23.360;2023-04-06T02:23:28;95008.31;;;1.00;100.00
3096;BME280;1558;42.700;23.360;2023-04-06T02:25:56;95006.19;;;0.97;100.00
3096;BME280;1558;42.700;23.360;2023-04-06T02:28:24;95004.06;;;0.99;100.00
3096;BME280;1558;42.700;23.360;2023-04-06T02:30:53;95009.88;;;1.01;100.00
3096;BME280;1558;42.700;23.360;2023-04-06T02:33:22;95011.00;;;0.95;100.00
3096;BME280;1558;42.700;23.360;2023-04-06T02:35:50;95014.50;;;0.90;100.00
3096;BME280;1558;42.700;23.360;2023-04-06T02:38:18;95003.09;;;0.85;100.00
3096;BME280;1558;42.700;23.360;2023-04-06T02:40:46;95008.38;;;0.90;100.00
3096;BME280;1558;42.700;23.360;2023-04-06T02:43:14;95011.25;;;0.93;100.00
3096;BME280;1558;42.700;23.360;2023-04-06T02:45:43;94998.78;;;0.94;100.00
3096;BME280;1558;42.700;23.360;2023-04-06T02:48:11;95010.28;;;0.84;100.00
3096;BME280;1558;42.700;23.360;2023-04-06T02:50:41;95006.56;;;0.85;100.00
3096;BME280;1558;42.700;23.360;2023-04-06T02:53:09;95009.72;;;0.87;100.00
3096;BME280;1558;42.700;23.360;2023-04-06T02:55:37;95012.88;;;0.89;100.00
3096;BME280;1558;42.700;23.360;2023-04-06T02:58:05;95009.44;;;0.89;100.00
3096;BME280;1558;42.700;23.360;2023-04-06T03:00:34;95006.78;;;0.89;100.00
3096;BME280;1558;42.700;23.360;2023-04-06T03:03:02;94981.91;;;0.80;100.00
3096;BME280;1558;42.700;23.360;2023-04-06T03:05:30;95001.06;;;1.05;100.00
3096;BME280;1558;42.700;23.360;2023-04-06T03:08:01;95003.97;;;1.09;100.00
3096;BME280;1558;42.700;23.360;2023-04-06T03:10:29;95012.41;;;1.16;100.00
3096;BME280;1558;42.700;23.360;2023-04-06T03:12:57;95013.97;;;1.17;100.00
3096;BME280;1558;42.700;23.360;2023-04-06T03:15:25;94999.63;;;1.18;100.00
3096;BME280;1558;42.700;23.360;2023-04-06T03:17:53;94995.63;;;1.20;100.00
3096;BME280;1558;42.700;23.360;2023-04-06T03:20:24;94994.38;;;1.13;100.00
3096;BME280;1558;42.700;23.360;2023-04-06T03:22:52;95006.50;;;1.19;100.00
3096;BME280;1558;42.700;23.360;2023-04-06T03:25:22;95008.66;;;1.17;100.00
3096;BME280;1558;42.700;23.360;2023-04-06T03:27:50;94999.94;;;1.16;100.00
3096;BME280;1558;42.700;23.360;2023-04-06T03:30:19;95002.34;;;1.13;100.00
3096;BME280;1558;42.700;23.360;2023-04-06T03:32:47;94997.03;;;1.13;100.00
3096;BME280;1558;42.700;23.360;2023-04-06T03:35:15;94989.00;;;1.18;100.00
3096;BME280;1558;42.700;23.360;2023-04-06T03:37:43;94994.53;;;1.21;100.00
3096;BME280;1558;42.700;23.360;2023-04-06T03:40:11;94995.88;;;1.19;100.00
3096;BME280;1558;42.700;23.360;2023-04-06T03:42:41;94982.09;;;1.17;100.00
3096;BME280;1558;42.700;23.360;2023-04-06T03:45:10;94986.19;;;1.09;100.00
3096;BME280;1558;42.700;23.360;2023-04-06T03:47:39;94992.72;;;1.17;100.00
3096;BME280;1558;42.700;23.360;2023-04-06T03:50:08;94994.53;;;1.21;100.00
3096;BME280;1558;42.700;23.360;2023-04-06T03:52:36;94999.63;;;1.18;100.00
3096;BME280;1558;42.700;23.360;2023-04-06T03:55:05;94997.53;;;1.15;100.00
3096;BME280;1558;42.700;23.360;2023-04-06T03:57:34;94966.97;;;0.89;100.00
3096;BME280;1558;42.700;23.360;2023-04-06T04:00:04;94999.22;;;1.06;100.00
3096;BME280;1558;42.700;23.360;2023-04-06T04:02:32;95006.38;;;1.05;100.00
3096;BME280;1558;42.700;23.360;2023-04-06T04:05:00;94997.91;;;1.03;100.00
3096;BME280;1558;42.700;23.360;2023-04-06T04:07:29;95001.34;;;1.04;100.00
3096;BME280;1558;42.700;23.360;2023-04-06T04:09:57;94849.41;;;-0.03;100.00
3096;BME280;1558;42.700;23.360;2023-04-06T04:12:25;95000.88;;;0.97;100.00
3096;BME280;1558;42.700;23.360;2023-04-06T04:14:53;95001.69;;;0.97;100.00
3096;BME280;1558;42.700;23.360;2023-04-06T04:17:23;94997.22;;;0.93;100.00
3096;BME280;1558;42.700;23.360;2023-04-06T04:19:52;94935.09;;;0.60;100.00
3096;BME280;1558;42.700;23.360;2023-04-06T04:22:20;94988.63;;;1.01;100.00
3096;BME280;1558;42.700;23.360;2023-04-06T04:24:48;94999.47;;;1.09;100.00
3096;BME280;1558;42.700;23.360;2023-04-06T04:27:16;94999.13;;;1.16;100.00
3096;BME280;1558;42.700;23.360;2023-04-06T04:29:44;94990.34;;;1.15;100.00
3096;BME280;1558;42.700;23.360;2023-04-06T04:32:12;95002.72;;;1.30;100.00
3096;BME280;1558;42.700;23.360;2023-04-06T04:34:42;94995.25;;;1.32;100.00
3096;BME280;1558;42.700;23.360;2023-04-06T04:37:10;94998.91;;;1.36;100.00
3096;BME280;1558;42.700;23.360;2023-04-06T04:39:38;95003.16;;;1.37;100.00
3096;BME280;1558;42.700;23.360;2023-04-06T04:42:07;95000.78;;;1.35;100.00
3096;BME280;1558;42.700;23.360;2023-04-06T04:44:35;95002.31;;;1.42;100.00
3096;BME280;1558;42.700;23.360;2023-04-06T04:47:04;95005.44;;;1.49;100.00
3096;BME280;1558;42.700;23.360;2023-04-06T04:49:32;94993.91;;;1.34;100.00
3096;BME280;1558;42.700;23.360;2023-04-06T04:52:02;94960.97;;;1.07;100.00
3096;BME280;1558;42.700;23.360;2023-04-06T04:54:30;94997.00;;;1.42;100.00
3096;BME280;1558;42.700;23.360;2023-04-06T04:56:58;95000.19;;;1.44;100.00
3096;BME280;1558;42.700;23.360;2023-04-06T04:59:26;95003.06;;;1.47;100.00
3096;BME280;1558;42.700;23.360;2023-04-06T05:01:56;94973.44;;;1.35;100.00
3096;BME280;1558;42.700;23.360;2023-04-06T05:04:24;95005.16;;;1.50;100.00
3096;BME280;1558;42.700;23.360;2023-04-06T05:07:03;94962.41;;;1.23;100.00
3096;BME280;1558;42.700;23.360;2023-04-06T05:09:35;95004.09;;;1.51;100.00
3096;BME280;1558;42.700;23.360;2023-04-06T05:12:03;94976.59;;;1.37;100.00
3096;BME280;1558;42.700;23.360;2023-04-06T05:14:31;94999.78;;;1.55;100.00
3096;BME280;1558;42.700;23.360;2023-04-06T05:16:59;94997.72;;;1.52;100.00
3096;BME280;1558;42.700;23.360;2023-04-06T05:19:27;95000.63;;;1.51;100.00
3096;BME280;1558;42.700;23.360;2023-04-06T05:21:55;95000.88;;;1.54;100.00
3096;BME280;1558;42.700;23.360;2023-04-06T05:24:25;94995.50;;;1.59;100.00
3096;BME280;1558;42.700;23.360;2023-04-06T05:26:53;95000.81;;;1.59;100.00
3096;BME280;1558;42.700;23.360;2023-04-06T05:29:22;94978.63;;;1.45;100.00
3096;BME280;1558;42.700;23.360;2023-04-06T05:31:52;95008.25;;;1.57;100.00
3096;BME280;1558;42.700;23.360;2023-04-06T05:34:21;94994.00;;;1.48;100.00
3096;BME280;1558;42.700;23.360;2023-04-06T05:36:49;94983.63;;;1.52;100.00
3096;BME280;1558;42.700;23.360;2023-04-06T05:39:17;95004.00;;;1.61;100.00
3096;BME280;1558;42.700;23.360;2023-04-06T05:41:48;94990.28;;;1.49;100.00
3096;BME280;1558;42.700;23.360;2023-04-06T05:44:16;94999.28;;;1.53;100.00
3096;BME280;1558;42.700;23.360;2023-04-06T05:46:44;95008.84;;;1.54;100.00
3096;BME280;1558;42.700;23.360;2023-04-06T05:49:13;95007.25;;;1.53;100.00
3096;BME280;1558;42.700;23.360;2023-04-06T05:51:41;94928.06;;;1.03;100.00
3096;BME280;1558;42.700;23.360;2023-04-06T05:54:09;95000.38;;;1.52;100.00
3096;BME280;1558;42.700;23.360;2023-04-06T05:56:37;95000.03;;;1.59;100.00
3096;BME280;1558;42.700;23.360;2023-04-06T05:59:06;94980.91;;;1.57;100.00
3096;BME280;1558;42.700;23.360;2023-04-06T06:01:35;94930.59;;;1.18;100.00
3096;BME280;1558;42.700;23.360;2023-04-06T06:04:03;95000.25;;;1.62;100.00
3096;BME280;1558;42.700;23.360;2023-04-06T06:06:31;94987.25;;;1.61;100.00
3096;BME280;1558;42.700;23.360;2023-04-06T06:08:59;94984.88;;;1.59;100.00
3096;BME280;1558;42.700;23.360;2023-04-06T06:11:30;94984.25;;;1.67;100.00
3096;BME280;1558;42.700;23.360;2023-04-06T06:13:59;94982.44;;;1.63;100.00
3096;BME280;1558;42.700;23.360;2023-04-06T06:16:29;94985.25;;;1.71;100.00
3096;BME280;1558;42.700;23.360;2023-04-06T06:18:57;94987.22;;;1.84;100.00
3096;BME280;1558;42.700;23.360;2023-04-06T06:21:25;94984.34;;;1.81;100.00
3096;BME280;1558;42.700;23.360;2023-04-06T06:23:53;94993.66;;;1.78;100.00
3096;BME280;1558;42.700;23.360;2023-04-06T06:26:21;94992.09;;;1.77;100.00
3096;BME280;1558;42.700;23.360;2023-04-06T06:28:49;94968.25;;;1.72;100.00
3096;BME280;1558;42.700;23.360;2023-04-06T06:31:17;94980.00;;;1.90;100.00
3096;BME280;1558;42.700;23.360;2023-04-06T06:33:48;94980.44;;;1.97;100.00
3096;BME280;1558;42.700;23.360;2023-04-06T06:36:18;94983.03;;;2.02;100.00
3096;BME280;1558;42.700;23.360;2023-04-06T06:38:46;94974.78;;;2.03;100.00
3096;BME280;1558;42.700;23.360;2023-04-06T06:41:14;94994.19;;;2.23;100.00
3096;BME280;1558;42.700;23.360;2023-04-06T06:43:42;94992.84;;;2.25;100.00
3096;BME280;1558;42.700;23.360;2023-04-06T06:46:10;94989.44;;;2.20;100.00
3096;BME280;1558;42.700;23.360;2023-04-06T06:48:39;94989.03;;;2.31;100.00
3096;BME280;1558;42.700;23.360;2023-04-06T06:51:08;94979.97;;;2.14;100.00
3096;BME280;1558;42.700;23.360;2023-04-06T06:53:38;94994.44;;;2.02;100.00
3096;BME280;1558;42.700;23.360;2023-04-06T06:56:06;94982.00;;;1.98;100.00
3096;BME280;1558;42.700;23.360;2023-04-06T06:58:34;94989.38;;;2.06;100.00
3096;BME280;1558;42.700;23.360;2023-04-06T07:01:03;94989.31;;;2.11;100.00
3096;BME280;1558;42.700;23.360;2023-04-06T07:03:32;94995.84;;;2.19;100.00
3096;BME280;1558;42.700;23.360;2023-04-06T07:06:00;94995.19;;;2.27;100.00
3096;BME280;1558;42.700;23.360;2023-04-06T07:08:29;94992.13;;;2.38;100.00
3096;BME280;1558;42.700;23.360;2023-04-06T07:10:57;94991.97;;;2.67;100.00
3096;BME280;1558;42.700;23.360;2023-04-06T07:13:25;94989.00;;;2.87;100.00
3096;BME280;1558;42.700;23.360;2023-04-06T07:15:54;94988.78;;;2.84;100.00
3096;BME280;1558;42.700;23.360;2023-04-06T07:18:22;94987.22;;;2.83;100.00
3096;BME280;1558;42.700;23.360;2023-04-06T07:20:50;94972.81;;;2.84;100.00
3096;BME280;1558;42.700;23.360;2023-04-06T07:23:18;94984.91;;;2.95;100.00
3096;BME280;1558;42.700;23.360;2023-04-06T07:25:48;94991.50;;;3.29;100.00
3096;BME280;1558;42.700;23.360;2023-04-06T07:28:17;94986.41;;;3.74;100.00
3096;BME280;1558;42.700;23.360;2023-04-06T07:30:45;94967.41;;;4.88;92.66
3096;BME280;1558;42.700;23.360;2023-04-06T07:33:14;94974.81;;;4.91;86.59
3096;BME280;1558;42.700;23.360;2023-04-06T07:35:42;94979.16;;;5.00;84.48
3096;BME280;1558;42.700;23.360;2023-04-06T07:38:10;94983.56;;;4.82;83.55
3096;BME280;1558;42.700;23.360;2023-04-06T07:40:38;94967.75;;;4.01;83.28
3096;BME280;1558;42.700;23.360;2023-04-06T07:43:07;94974.78;;;4.46;83.93
3096;BME280;1558;42.700;23.360;2023-04-06T07:45:36;94967.41;;;4.30;83.07
3096;BME280;1558;42.700;23.360;2023-04-06T07:48:04;94975.31;;;4.21;83.84
3096;BME280;1558;42.700;23.360;2023-04-06T07:50:33;94974.69;;;4.51;84.17
3096;BME280;1558;42.700;23.360;2023-04-06T07:53:01;94984.53;;;5.31;81.76
3096;BME280;1558;42.700;23.360;2023-04-06T07:55:29;94976.84;;;5.99;76.52
3096;BME280;1558;42.700;23.360;2023-04-06T07:57:57;94971.41;;;6.13;75.09
3096;BME280;1558;42.700;23.360;2023-04-06T08:00:27;94922.13;;;5.75;73.58
3096;BME280;1558;42.700;23.360;2023-04-06T08:02:55;94975.72;;;6.57;72.99
3096;BME280;1558;42.700;23.360;2023-04-06T08:05:23;94971.78;;;6.97;71.66
3096;BME280;1558;42.700;23.360;2023-04-06T08:07:51;94968.72;;;6.22;71.77
3096;BME280;1558;42.700;23.360;2023-04-06T08:10:19;94967.47;;;6.28;72.19
3096;BME280;1558;42.700;23.360;2023-04-06T08:12:47;94969.25;;;6.41;72.21
3096;BME280;1558;42.700;23.360;2023-04-06T08:15:16;94970.38;;;6.91;70.95
3096;BME280;1558;42.700;23.360;2023-04-06T08:17:46;94970.16;;;7.94;68.64
3096;BME280;1558;42.700;23.360;2023-04-06T08:20:14;94959.25;;;7.53;65.74
3096;BME280;1558;42.700;23.360;2023-04-06T08:22:42;94973.53;;;6.76;64.79
3096;BME280;1558;42.700;23.360;2023-04-06T08:25:10;94979.19;;;7.34;66.32
3096;BME280;1558;42.700;23.360;2023-04-06T08:27:38;94984.91;;;7.79;65.30
3096;BME280;1558;42.700;23.360;2023-04-06T08:30:07;94990.78;;;7.64;63.83
3096;BME280;1558;42.700;23.360;2023-04-06T08:32:35;94980.16;;;7.76;63.05
3096;BME280;1558;42.700;23.360;2023-04-06T08:35:05;94975.38;;;7.90;63.17
3096;BME280;1558;42.700;23.360;2023-04-06T08:37:33;94984.78;;;7.67;63.36
3096;BME280;1558;42.700;23.360;2023-04-06T08:40:01;94962.81;;;7.10;62.31
3096;BME280;1558;42.700;23.360;2023-04-06T08:42:32;94983.28;;;7.23;63.67
3096;BME280;1558;42.700;23.360;2023-04-06T08:45:00;94971.63;;;7.83;62.38
3096;BME280;1558;42.700;23.360;2023-04-06T08:47:28;94978.22;;;6.45;63.99
3096;BME280;1558;42.700;23.360;2023-04-06T08:49:58;94858.69;;;5.75;64.98
3096;BME280;1558;42.700;23.360;2023-04-06T08:52:31;94983.28;;;6.46;65.55
3096;BME280;1558;42.700;23.360;2023-04-06T08:55:00;94981.91;;;6.92;66.23
3096;BME280;1558;42.700;23.360;2023-04-06T08:57:29;94978.50;;;7.55;64.20
3096;BME280;1558;42.700;23.360;2023-04-06T09:00:02;94982.81;;;7.04;63.14
3096;BME280;1558;42.700;23.360;2023-04-06T09:02:31;94987.38;;;6.61;64.23
3096;BME280;1558;42.700;23.360;2023-04-06T09:05:01;94960.88;;;6.25;65.45
3096;BME280;1558;42.700;23.360;2023-04-06T09:07:38;94984.38;;;7.31;63.98
3096;BME280;1558;42.700;23.360;2023-04-06T09:10:08;94947.88;;;7.47;63.43
3096;BME280;1558;42.700;23.360;2023-04-06T09:12:38;94971.91;;;7.43;63.01
3096;BME280;1558;42.700;23.360;2023-04-06T09:15:18;94976.44;;;7.60;63.91
3096;BME280;1558;42.700;23.360;2023-04-06T09:17:51;94970.53;;;7.03;62.84
3096;BME280;1558;42.700;23.360;2023-04-06T09:20:23;94898.72;;;5.49;65.21
3096;BME280;1558;42.700;23.360;2023-04-06T09:22:56;94964.88;;;6.79;66.39
3096;BME280;1558;42.700;23.360;2023-04-06T09:25:25;94977.09;;;7.95;61.16
3096;BME280;1558;42.700;23.360;2023-04-06T09:28:01;94973.34;;;7.87;61.03
3096;BME280;1558;42.700;23.360;2023-04-06T09:30:32;94969.28;;;8.69;60.52
3096;BME280;1558;42.700;23.360;2023-04-06T09:33:10;94963.22;;;9.13;57.69
3096;BME280;1558;42.700;23.360;2023-04-06T09:35:53;94948.78;;;8.35;58.42
3096;BME280;1558;42.700;23.360;2023-04-06T09:38:22;94965.16;;;7.12;60.79
3096;BME280;1558;42.700;23.360;2023-04-06T09:40:51;94969.38;;;7.93;61.05
3096;BME280;1558;42.700;23.360;2023-04-06T09:43:27;94939.13;;;7.76;59.12
3096;BME280;1558;42.700;23.360;2023-04-06T09:45:55;94957.44;;;8.70;58.82
3096;BME280;1558;42.700;23.360;2023-04-06T09:48:26;94961.63;;;9.00;58.67
3096;BME280;1558;42.700;23.360;2023-04-06T09:51:00;94960.38;;;8.77;56.99
3096;BME280;1558;42.700;23.360;2023-04-06T09:53:35;94958.19;;;8.50;58.13
3096;BME280;1558;42.700;23.360;2023-04-06T09:56:10;94923.56;;;7.90;57.51
3096;BME280;1558;42.700;23.360;2023-04-06T09:58:41;94963.63;;;8.41;59.08
3096;BME280;1558;42.700;23.360;2023-04-06T10:01:15;94890.06;;;7.67;59.08
3096;BME280;1558;42.700;23.360;2023-04-06T10:03:51;94966.38;;;8.24;58.67
3096;BME280;1558;42.700;23.360;2023-04-06T10:06:39;94965.44;;;7.27;59.31
3096;BME280;1558;42.700;23.360;2023-04-06T10:09:11;94972.13;;;7.13;60.14
3096;BME280;1558;42.700;23.360;2023-04-06T10:11:41;94965.63;;;7.14;60.30
3096;BME280;1558;42.700;23.360;2023-04-06T10:14:10;94968.81;;;8.08;60.13
3096;BME280;1558;42.700;23.360;2023-04-06T10:16:39;94955.38;;;7.79;59.62
3096;BME280;1558;42.700;23.360;2023-04-06T10:19:13;94927.84;;;7.91;59.97
3096;BME280;1558;42.700;23.360;2023-04-06T10:21:48;94945.50;;;8.30;59.14
3096;BME280;1558;42.700;23.360;2023-04-06T10:24:20;94948.63;;;8.02;57.80
3096;BME280;1558;42.700;23.360;2023-04-06T10:26:57;94950.41;;;7.61;58.24
3096;BME280;1558;42.700;23.360;2023-04-06T10:29:26;94949.16;;;7.49;58.79
3096;BME280;1558;42.700;23.360;2023-04-06T10:31:58;94944.50;;;7.12;61.25
3096;BME280;1558;42.700;23.360;2023-04-06T10:34:34;94944.94;;;7.78;60.54
3096;BME280;1558;42.700;23.360;2023-04-06T10:37:12;94869.16;;;8.01;58.65
3096;BME280;1558;42.700;23.360;2023-04-06T10:39:52;94937.16;;;8.72;57.16
3096;BME280;1558;42.700;23.360;2023-04-06T10:42:25;94944.63;;;8.08;56.08
3096;BME280;1558;42.700;23.360;2023-04-06T10:45:06;94939.78;;;8.02;56.57
3096;BME280;1558;42.700;23.360;2023-04-06T10:47:39;94945.03;;;7.98;58.31
3096;BME280;1558;42.700;23.360;2023-04-06T10:50:08;94949.38;;;7.74;57.88
3096;BME280;1558;42.700;23.360;2023-04-06T10:52:38;94953.56;;;7.92;58.30
3096;BME280;1558;42.700;23.360;2023-04-06T10:55:08;94927.47;;;7.08;57.98
3096;BME280;1558;42.700;23.360;2023-04-06T10:57:36;94939.03;;;7.46;60.03
3096;BME280;1558;42.700;23.360;2023-04-06T11:00:06;94936.81;;;7.95;58.01
3096;BME280;1558;42.700;23.360;2023-04-06T11:02:38;94927.84;;;8.49;56.68
3096;BME280;1558;42.700;23.360;2023-04-06T11:05:07;94927.31;;;8.76;54.96
3096;BME280;1558;42.700;23.360;2023-04-06T11:07:35;94929.75;;;8.90;55.53
3096;BME280;1558;42.700;23.360;2023-04-06T11:10:04;94915.00;;;7.67;56.02
3096;BME280;1558;42.700;23.360;2023-04-06T11:12:44;94929.84;;;7.10;56.99
3096;BME280;1558;42.700;23.360;2023-04-06T11:15:13;94928.81;;;7.40;59.18
3096;BME280;1558;42.700;23.360;2023-04-06T11:17:41;94916.88;;;8.04;57.98
3096;BME280;1558;42.700;23.360;2023-04-06T11:20:11;94922.84;;;8.39;57.37
3096;BME280;1558;42.700;23.360;2023-04-06T11:22:48;94890.50;;;7.77;57.18
3096;BME280;1558;42.700;23.360;2023-04-06T11:25:17;94904.41;;;7.71;57.02
3096;BME280;1558;42.700;23.360;2023-04-06T11:27:47;94911.47;;;7.84;56.86
3096;BME280;1558;42.700;23.360;2023-04-06T11:30:16;94912.16;;;7.64;57.60
3096;BME280;1558;42.700;23.360;2023-04-06T11:32:45;94907.81;;;7.80;57.38
3096;BME280;1558;42.700;23.360;2023-04-06T11:35:20;94922.13;;;7.92;57.17
3096;BME280;1558;42.700;23.360;2023-04-06T11:37:48;94911.47;;;7.84;57.44
3096;BME280;1558;42.700;23.360;2023-04-06T11:40:20;94896.72;;;8.19;56.70
3096;BME280;1558;42.700;23.360;2023-04-06T11:42:54;94868.75;;;7.62;56.82
3096;BME280;1558;42.700;23.360;2023-04-06T11:45:23;94914.06;;;8.01;58.58
3096;BME280;1558;42.700;23.360;2023-04-06T11:47:57;94917.81;;;7.71;57.60
3096;BME280;1558;42.700;23.360;2023-04-06T11:50:31;94914.47;;;7.27;58.82
3096;BME280;1558;42.700;23.360;2023-04-06T11:53:01;94900.16;;;7.23;58.46
3096;BME280;1558;42.700;23.360;2023-04-06T11:55:37;94901.72;;;7.24;58.89
3096;BME280;1558;42.700;23.360;2023-04-06T11:58:08;94900.31;;;7.18;59.08
3096;BME280;1558;42.700;23.360;2023-04-06T12:00:36;94894.44;;;7.33;59.34
3096;BME280;1558;42.700;23.360;2023-04-06T12:03:04;94901.44;;;7.17;59.23
3096;BME280;1558;42.700;23.360;2023-04-06T12:05:33;94883.31;;;6.97;59.58
3096;BME280;1558;42.700;23.360;2023-04-06T12:08:01;94899.72;;;7.04;60.18
3096;BME280;1558;42.700;23.360;2023-04-06T12:10:29;94897.53;;;6.89;60.48
3096;BME280;1558;42.700;23.360;2023-04-06T12:12:57;94899.28;;;6.76;60.07
3096;BME280;1558;42.700;23.360;2023-04-06T12:15:27;94852.19;;;6.50;60.98
3096;BME280;1558;42.700;23.360;2023-04-06T12:17:55;94896.13;;;6.74;61.67
3096;BME280;1558;42.700;23.360;2023-04-06T12:20:23;94892.00;;;7.03;60.88
3096;BME280;1558;42.700;23.360;2023-04-06T12:22:53;94872.59;;;6.97;60.47
3096;BME280;1558;42.700;23.360;2023-04-06T12:25:21;94764.94;;;6.06;59.89
3096;BME280;1558;42.700;23.360;2023-04-06T12:27:49;94891.06;;;6.73;59.60
3096;BME280;1558;42.700;23.360;2023-04-06T12:30:18;94885.91;;;6.68;59.44
3096;BME280;1558;42.700;23.360;2023-04-06T12:32:47;94888.25;;;6.69;60.02
3096;BME280;1558;42.700;23.360;2023-04-06T12:35:17;94890.31;;;6.72;60.50
3096;BME280;1558;42.700;23.360;2023-04-06T12:37:45;94881.00;;;6.70;60.03
3096;BME280;1558;42.700;23.360;2023-04-06T12:40:13;94886.53;;;6.82;59.97
3096;BME280;1558;42.700;23.360;2023-04-06T12:42:41;94884.59;;;7.08;60.26
3096;BME280;1558;42.700;23.360;2023-04-06T12:45:10;94883.50;;;6.83;59.81
3096;BME280;1558;42.700;23.360;2023-04-06T12:47:38;94880.88;;;6.58;59.40
3096;BME280;1558;42.700;23.360;2023-04-06T12:50:08;94877.72;;;6.39;58.97
3096;BME280;1558;42.700;23.360;2023-04-06T12:52:37;94875.50;;;6.32;59.65
3096;BME280;1558;42.700;23.360;2023-04-06T12:55:06;94876.75;;;6.52;59.74
3096;BME280;1558;42.700;23.360;2023-04-06T12:57:34;94863.81;;;6.54;59.78
3096;BME280;1558;42.700;23.360;2023-04-06T13:00:05;94877.41;;;6.49;59.88
3096;BME280;1558;42.700;23.360;2023-04-06T13:02:35;94875.03;;;6.56;60.11
3096;BME280;1558;42.700;23.360;2023-04-06T13:05:04;94871.06;;;6.62;59.95
3096;BME280;1558;42.700;23.360;2023-04-06T13:07:34;94851.69;;;6.56;59.92
3096;BME280;1558;42.700;23.360;2023-04-06T13:10:04;94802.25;;;6.20;60.02
3096;BME280;1558;42.700;23.360;2023-04-06T13:12:32;94863.66;;;6.85;60.00
3096;BME280;1558;42.700;23.360;2023-04-06T13:15:01;94857.53;;;6.67;59.32
3096;BME280;1558;42.700;23.360;2023-04-06T13:17:29;94853.13;;;6.37;60.46
3096;BME280;1558;42.700;23.360;2023-04-06T13:19:57;94857.69;;;6.28;61.07
3096;BME280;1558;42.700;23.360;2023-04-06T13:22:26;94856.59;;;6.37;60.62
3096;BME280;1558;42.700;23.360;2023-04-06T13:24:55;94856.91;;;6.53;60.90
3096;BME280;1558;42.700;23.360;2023-04-06T13:27:23;94855.31;;;6.52;60.25